Portales, NM (88123)

9:55 AM MDT on August 31, 2016 (GMT -0600)
APRSWXNET | | Change Station

Elev 4117 ft 33.65 °N, 103.27 °W | Updated 28 minutes ago

Rain
Rain Mist
66 °F
Feels Like 66 °F
N
4
Wind Variable Wind from NE
Gusts 8.0 mph

Today
High -- | Low -- °F
--% Chance of Precip.
Yesterday
High -- | Low -- °F
Precip. -- in
Pressure 30.28 in
Visibility 2.5 miles
Clouds Scattered Clouds 400 ft
Scattered Clouds 900 ft
Overcast 1400 ft
Dew Point 65 °F
Humidity 96%
Rainfall in
Snow Depth Not available.
6:26 AM 7:18 PM
Waning Crescent, 1% visible
SPECI KCVS 311533Z 09006KT 2 1/2SM RA BR SCT004 SCT009 OVC014 17/17 A3028 RMK AO2A VIS 2 1/2V3
Pressure 30.28 in
Visibility 2.5 miles
Clouds Scattered Clouds 400 ft
Scattered Clouds 900 ft
Overcast 1400 ft
Dew Point 65 °F
Humidity 96%
Rainfall in
Snow Depth Not available.
6:26 AM 7:18 PM
Waning Crescent, 1% visible
SPECI KCVS 311533Z 09006KT 2 1/2SM RA BR SCT004 SCT009 OVC014 17/17 A3028 RMK AO2A VIS 2 1/2V3

10-Day Weather Forecast

Almanac

Astronomy

Aug. 31, 2016 Rise Set
Actual Time
Civil Twilight
Nautical Twilight
Astronomical Twilight
Moon
Length of Visible Light
Length of Day
Tomorrow will be .
, % of the Moon is Illuminated

Today's Extremes

State Highs State Lows

Community

WunderPhotos

Upload Photos

1,936,098 photos uploaded!

WunderBlog® & News

Nearby

Air Quality

  Air Quality AQ Index Pollutant
Not available.

Snow Depth

Station Depth Elevation

Earthquake Activity

City Distance Mag. Time & Date
Minimum magnitude displayed is 2.5.

Coastal Water Temperatures

Place Temperature

Stations

Nearby Weather Stations

Station Location Temp. Windchill Dew Point Humidity Wind Precip. Elev Updated Type
                   

Watches & Warnings

There are currently no watches in effect.